createdAt,value
2024-01-15T00:00:36.091Z,17.00
2024-01-15T00:03:03.203Z,10.57
2024-01-15T00:05:30.148Z,18.10
2024-01-15T00:07:57.051Z,12.97
2024-01-15T00:10:24.953Z,17.10
2024-01-15T00:12:58.018Z,19.40
2024-01-15T00:15:25.429Z,18.10
2024-01-15T00:17:55.343Z,16.67
2024-01-15T00:20:22.546Z,14.27
2024-01-15T00:22:49.454Z,16.47
2024-01-15T00:25:16.517Z,15.07
2024-01-15T00:27:43.456Z,13.53
2024-01-15T00:30:11.191Z,15.70
2024-01-15T00:32:38.200Z,13.47
2024-01-15T00:35:05.994Z,13.67
2024-01-15T00:37:33.169Z,15.17
2024-01-15T00:40:00.356Z,16.10
2024-01-15T00:42:27.819Z,12.77
2024-01-15T00:44:58.613Z,12.97
2024-01-15T00:47:26.150Z,16.07
2024-01-15T00:49:53.172Z,14.67
2024-01-15T00:52:20.185Z,14.50
2024-01-15T00:54:47.226Z,10.40
2024-01-15T00:57:14.261Z,14.70
2024-01-15T00:59:41.944Z,14.70
2024-01-15T01:02:09.216Z,11.23
2024-01-15T01:04:39.234Z,14.13
2024-01-15T01:07:06.071Z,9.30
2024-01-15T01:09:33.188Z,13.13
2024-01-15T01:12:00.343Z,15.37
2024-01-15T01:14:27.404Z,16.90
2024-01-15T01:16:54.377Z,14.50
2024-01-15T01:19:22.024Z,12.47
2024-01-15T01:21:49.052Z,9.67
2024-01-15T01:24:16.388Z,17.30
2024-01-15T01:26:43.775Z,11.90
2024-01-15T01:29:10.919Z,15.77
2024-01-15T01:31:37.969Z,16.23
2024-01-15T01:34:05.232Z,17.57
2024-01-15T01:36:32.971Z,17.73
2024-01-15T01:38:59.875Z,17.10
2024-01-15T01:41:27.003Z,15.63
2024-01-15T01:43:53.849Z,15.30
2024-01-15T01:46:20.860Z,15.73
2024-01-15T01:48:47.754Z,11.67
2024-01-15T01:51:17.875Z,14.97
2024-01-15T01:53:47.271Z,15.50
2024-01-15T01:56:15.573Z,16.57
2024-01-15T01:58:43.187Z,14.83
2024-01-15T02:01:10.496Z,17.10
2024-01-15T02:03:37.805Z,15.33
2024-01-15T02:06:05.161Z,16.23
2024-01-15T02:08:32.354Z,14.87
2024-01-15T02:10:59.632Z,12.43
2024-01-15T02:13:26.787Z,15.53
2024-01-15T02:15:53.747Z,13.87
2024-01-15T02:18:24.220Z,15.20
2024-01-15T02:20:51.197Z,14.10
2024-01-15T02:23:18.350Z,13.60
2024-01-15T02:25:47.268Z,14.80
2024-01-15T02:28:17.543Z,13.73
2024-01-15T02:30:45.414Z,13.03
2024-01-15T02:33:14.103Z,13.73
2024-01-15T02:35:41.949Z,13.23
2024-01-15T02:38:09.509Z,13.33
2024-01-15T02:40:37.250Z,13.47
2024-01-15T02:43:06.790Z,9.73
2024-01-15T02:45:34.412Z,13.40
2024-01-15T02:48:10.073Z,12.90
2024-01-15T02:50:37.453Z,12.77
2024-01-15T02:53:07.483Z,12.03
2024-01-15T02:55:34.354Z,11.20
2024-01-15T02:58:04.107Z,13.70
2024-01-15T03:00:30.988Z,10.83
2024-01-15T03:03:00.958Z,11.17
2024-01-15T03:05:28.309Z,13.00
2024-01-15T03:07:58.485Z,11.37
2024-01-15T03:10:25.315Z,11.50
2024-01-15T03:12:52.246Z,10.87
2024-01-15T03:15:19.945Z,5.97
2024-01-15T03:17:46.982Z,11.60
2024-01-15T03:20:13.945Z,11.77
2024-01-15T03:22:41.026Z,11.20
2024-01-15T03:25:08.580Z,12.60
2024-01-15T03:27:38.380Z,10.97
2024-01-15T03:30:05.845Z,9.90
2024-01-15T03:32:33.100Z,12.00
2024-01-15T03:35:00.144Z,11.70
2024-01-15T03:37:27.420Z,11.23
2024-01-15T03:39:54.517Z,11.30
2024-01-15T03:42:24.550Z,9.60
2024-01-15T03:44:51.743Z,11.20
2024-01-15T03:47:18.581Z,11.30
2024-01-15T03:49:46.264Z,12.73
2024-01-15T03:52:13.262Z,12.50
2024-01-15T03:54:40.397Z,11.90
2024-01-15T03:57:07.322Z,9.87
2024-01-15T03:59:34.107Z,11.83
2024-01-15T04:02:00.984Z,11.53
2024-01-15T04:04:28.127Z,11.90
2024-01-15T04:06:55.122Z,11.67
2024-01-15T04:09:22.029Z,10.77
2024-01-15T04:11:48.891Z,11.45
2024-01-15T04:14:15.788Z,11.03
2024-01-15T04:16:45.926Z,9.37
2024-01-15T04:19:12.886Z,9.43
2024-01-15T04:21:40.490Z,10.33
2024-01-15T04:24:07.648Z,10.30
2024-01-15T04:26:34.978Z,9.03
2024-01-15T04:29:01.843Z,12.03
2024-01-15T04:31:29.065Z,8.40
2024-01-15T04:33:59.351Z,10.68
2024-01-15T04:36:26.399Z,11.10
2024-01-15T04:38:56.708Z,12.43
2024-01-15T04:41:23.608Z,11.00
2024-01-15T04:43:50.533Z,12.23
2024-01-15T04:46:17.477Z,12.37
2024-01-15T04:48:44.400Z,12.07
2024-01-15T04:51:12.415Z,12.30
2024-01-15T04:53:40.030Z,10.23
2024-01-15T04:56:07.408Z,11.07
2024-01-15T04:58:34.303Z,13.03
2024-01-15T05:01:01.308Z,11.47
2024-01-15T05:03:31.435Z,11.83
2024-01-15T05:05:58.385Z,11.93
2024-01-15T05:08:25.544Z,12.93
2024-01-15T05:10:52.401Z,11.50
2024-01-15T05:13:22.341Z,8.70
2024-01-15T05:15:49.380Z,11.43
2024-01-15T05:18:20.351Z,12.60
2024-01-15T05:20:47.590Z,12.73
2024-01-15T05:23:14.683Z,13.30
2024-01-15T05:25:41.582Z,14.20
2024-01-15T05:28:11.335Z,8.77
2024-01-15T05:30:38.593Z,12.73
2024-01-15T05:33:06.418Z,10.23
2024-01-15T05:35:33.354Z,13.87
2024-01-15T05:38:00.452Z,12.43
2024-01-15T05:40:27.321Z,12.17
2024-01-15T05:42:54.593Z,7.07
2024-01-15T05:45:24.520Z,12.73
2024-01-15T05:47:51.424Z,11.50
2024-01-15T05:50:18.726Z,10.37
2024-01-15T05:52:45.641Z,10.48
2024-01-15T05:55:12.565Z,13.43
2024-01-15T05:57:42.193Z,11.63
2024-01-15T06:00:10.451Z,10.67
2024-01-15T06:02:42.163Z,10.93
2024-01-15T06:05:09.312Z,13.03
2024-01-15T06:07:37.656Z,10.53
2024-01-15T06:10:08.437Z,12.10
2024-01-15T06:12:35.604Z,8.50
2024-01-15T06:15:02.570Z,11.00
2024-01-15T06:17:29.765Z,10.73
2024-01-15T06:19:56.926Z,8.33
2024-01-15T06:22:23.980Z,10.27
2024-01-15T06:24:51.077Z,10.40
2024-01-15T06:27:20.126Z,13.13
2024-01-15T06:29:59.588Z,13.83
2024-01-15T06:32:29.029Z,11.03
2024-01-15T06:35:02.622Z,8.50
2024-01-15T06:37:33.975Z,8.63
2024-01-15T06:40:01.870Z,5.27
2024-01-15T06:42:28.820Z,9.27
2024-01-15T06:44:57.932Z,9.03
2024-01-15T06:47:27.551Z,9.70
2024-01-15T06:49:54.580Z,9.60
2024-01-15T06:52:22.277Z,12.20
2024-01-15T06:54:52.287Z,9.87
2024-01-15T06:57:22.537Z,11.83
2024-01-15T06:59:50.462Z,13.20
2024-01-15T07:02:17.670Z,11.50
2024-01-15T07:04:44.919Z,11.73
2024-01-15T07:07:17.392Z,13.53
2024-01-15T07:09:44.414Z,10.95
2024-01-15T07:12:11.307Z,10.30
2024-01-15T07:14:38.157Z,10.43
2024-01-15T07:17:05.021Z,12.43
2024-01-15T07:19:32.099Z,9.43
2024-01-15T07:22:02.140Z,9.20
2024-01-15T07:24:29.209Z,9.20
2024-01-15T07:26:56.152Z,9.93
2024-01-15T07:29:26.170Z,9.03
2024-01-15T07:31:56.580Z,11.27
2024-01-15T07:34:23.887Z,8.93
2024-01-15T07:36:56.166Z,7.93
2024-01-15T07:39:26.103Z,9.87
2024-01-15T07:41:53.599Z,9.33
2024-01-15T07:44:20.493Z,9.37
2024-01-15T07:46:50.217Z,11.17
2024-01-15T07:49:20.416Z,10.63
2024-01-15T07:51:47.588Z,11.43
2024-01-15T07:54:17.554Z,11.80
2024-01-15T07:57:01.938Z,9.90
2024-01-15T07:59:30.959Z,9.90
2024-01-15T08:01:57.958Z,9.63
2024-01-15T08:04:27.144Z,11.57
2024-01-15T08:07:00.519Z,9.80
2024-01-15T08:09:27.568Z,11.43
2024-01-15T08:11:54.805Z,9.53
2024-01-15T08:14:21.735Z,7.87
2024-01-15T08:16:48.575Z,11.27
2024-01-15T08:19:16.951Z,9.47
2024-01-15T08:21:44.352Z,11.33
2024-01-15T08:24:13.126Z,12.27
2024-01-15T08:26:39.947Z,11.07
2024-01-15T08:29:06.770Z,11.47
2024-01-15T08:31:33.954Z,9.70
2024-01-15T08:34:04.318Z,11.60
2024-01-15T08:36:35.241Z,11.30
2024-01-15T08:39:04.782Z,10.35
2024-01-15T08:41:35.123Z,11.70
2024-01-15T08:44:02.312Z,11.80
2024-01-15T08:46:51.025Z,9.23
2024-01-15T08:49:18.800Z,10.52
2024-01-15T08:51:45.747Z,10.60
2024-01-15T08:54:12.628Z,11.48
2024-01-15T08:56:39.862Z,10.38
2024-01-15T08:59:06.728Z,8.25
2024-01-15T09:01:34.098Z,11.25
2024-01-15T09:04:01.175Z,9.10
2024-01-15T09:06:28.170Z,11.52
2024-01-15T09:08:58.223Z,10.20
2024-01-15T09:11:26.001Z,8.40
2024-01-15T09:13:55.736Z,11.60
2024-01-15T09:16:22.700Z,8.98
2024-01-15T09:18:49.640Z,9.18
2024-01-15T09:21:19.755Z,10.57
2024-01-15T09:23:50.188Z,8.35
2024-01-15T09:26:18.237Z,8.45
2024-01-15T09:28:45.200Z,12.10
2024-01-15T09:31:14.429Z,11.45
2024-01-15T09:33:41.429Z,9.70
2024-01-15T09:36:11.436Z,10.93
2024-01-15T09:38:46.148Z,9.65
2024-01-15T09:41:13.347Z,9.32
2024-01-15T09:43:40.392Z,11.15
2024-01-15T09:46:10.490Z,10.25
2024-01-15T09:48:38.169Z,7.43
2024-01-15T09:51:07.494Z,8.68
2024-01-15T09:53:35.511Z,7.60
2024-01-15T09:56:02.767Z,10.93
2024-01-15T09:58:31.862Z,11.50
2024-01-15T10:01:06.120Z,10.68
2024-01-15T10:03:35.937Z,10.18
2024-01-15T10:06:03.806Z,11.52
2024-01-15T10:08:35.133Z,8.95
2024-01-15T10:11:01.918Z,10.55
2024-01-15T10:13:31.586Z,10.50
2024-01-15T10:15:59.890Z,11.13
2024-01-15T10:18:26.911Z,11.02
2024-01-15T10:21:03.533Z,11.88
2024-01-15T10:23:31.671Z,10.98
2024-01-15T10:25:59.140Z,11.90
2024-01-15T10:28:31.914Z,11.50
2024-01-15T10:31:03.378Z,11.40
2024-01-15T10:33:30.517Z,10.05
2024-01-15T10:35:59.497Z,10.70
2024-01-15T10:38:28.639Z,11.18
2024-01-15T10:40:56.662Z,9.98
2024-01-15T10:43:29.020Z,7.47
2024-01-15T10:45:57.782Z,6.50
2024-01-15T10:48:24.816Z,6.47
2024-01-15T10:50:52.016Z,10.00
2024-01-15T10:53:19.481Z,8.55
2024-01-15T10:55:49.978Z,9.48
2024-01-15T10:58:19.132Z,9.50
2024-01-15T11:00:46.455Z,11.30
2024-01-15T11:03:14.149Z,10.70
2024-01-15T11:05:44.607Z,10.52
2024-01-15T11:08:15.391Z,10.63
2024-01-15T11:10:50.069Z,7.40
2024-01-15T11:13:27.287Z,9.82
2024-01-15T11:16:08.050Z,8.48
2024-01-15T11:18:48.456Z,10.73
2024-01-15T11:21:29.084Z,11.13
2024-01-15T11:24:00.709Z,9.32
2024-01-15T11:26:49.386Z,9.57
2024-01-15T11:29:30.639Z,10.15
2024-01-15T11:31:58.438Z,8.80
2024-01-15T11:34:51.631Z,10.45
2024-01-15T11:37:22.395Z,10.60
2024-01-15T11:39:53.450Z,10.65
2024-01-15T11:42:21.796Z,9.38
2024-01-15T11:44:50.213Z,9.52
2024-01-15T11:47:17.196Z,9.27
2024-01-15T11:50:07.711Z,10.15
2024-01-15T11:52:37.353Z,11.07
2024-01-15T11:55:20.863Z,9.25
2024-01-15T11:57:59.163Z,10.88
2024-01-15T12:00:26.349Z,9.02
2024-01-15T12:02:53.422Z,9.90
2024-01-15T12:05:21.678Z,9.50
2024-01-15T12:07:51.195Z,7.72
2024-01-15T12:10:20.089Z,7.90
2024-01-15T12:12:59.300Z,8.80
2024-01-15T12:15:28.154Z,6.43
2024-01-15T12:18:00.928Z,7.63
2024-01-15T12:20:32.269Z,8.68
2024-01-15T12:23:02.744Z,9.38
2024-01-15T12:25:35.308Z,8.57
2024-01-15T12:28:03.202Z,8.60
2024-01-15T12:30:33.399Z,9.77
2024-01-15T12:33:06.727Z,8.75
2024-01-15T12:35:35.842Z,9.32
2024-01-15T12:38:08.666Z,8.82
2024-01-15T12:40:38.681Z,8.35
2024-01-15T12:43:08.802Z,8.27
2024-01-15T12:45:37.326Z,7.43
2024-01-15T12:48:05.994Z,6.15
2024-01-15T12:50:39.531Z,6.75
2024-01-15T12:53:06.411Z,8.38
2024-01-15T12:55:40.869Z,7.95
2024-01-15T12:58:08.303Z,6.88
2024-01-15T13:00:35.354Z,5.57
2024-01-15T13:03:07.019Z,6.50
2024-01-15T13:05:35.862Z,8.63
2024-01-15T13:08:02.891Z,6.18
2024-01-15T13:10:36.870Z,8.65
2024-01-15T13:13:08.539Z,7.03
2024-01-15T13:15:36.652Z,4.93
2024-01-15T13:18:11.736Z,5.45
2024-01-15T13:20:39.070Z,5.38
2024-01-15T13:23:06.177Z,4.95
2024-01-15T13:25:35.212Z,6.38
2024-01-15T13:28:02.345Z,5.60
2024-01-15T13:30:29.462Z,4.10
2024-01-15T13:32:58.656Z,6.32
2024-01-15T13:35:26.240Z,6.40
2024-01-15T13:37:54.458Z,5.90
2024-01-15T13:40:21.423Z,5.45
2024-01-15T13:42:49.078Z,5.07
2024-01-15T13:45:16.800Z,5.65
2024-01-15T13:47:45.185Z,5.93
2024-01-15T13:50:12.016Z,6.40
2024-01-15T13:52:39.261Z,6.68
2024-01-15T13:55:08.739Z,8.02
2024-01-15T13:57:36.179Z,5.68
2024-01-15T14:00:03.946Z,7.00
2024-01-15T14:02:30.876Z,4.13
2024-01-15T14:04:57.676Z,5.55
2024-01-15T14:07:24.510Z,5.80
2024-01-15T14:09:51.646Z,2.97
2024-01-15T14:12:18.815Z,6.57
2024-01-15T14:14:46.208Z,6.75
2024-01-15T14:17:13.829Z,6.70
2024-01-15T14:19:41.783Z,5.20
2024-01-15T14:22:08.740Z,6.20
2024-01-15T14:24:35.798Z,5.82
2024-01-15T14:27:02.710Z,4.25
2024-01-15T14:29:29.555Z,5.88
2024-01-15T14:31:56.955Z,4.22
2024-01-15T14:34:25.592Z,6.80
2024-01-15T14:36:58.425Z,5.82
2024-01-15T14:39:27.238Z,5.63
2024-01-15T14:41:55.985Z,6.97
2024-01-15T14:44:22.985Z,5.97
2024-01-15T14:46:50.035Z,7.88
2024-01-15T14:49:19.099Z,5.03
2024-01-15T14:51:46.285Z,5.88
2024-01-15T14:54:16.536Z,8.52
2024-01-15T14:56:44.212Z,5.70
2024-01-15T14:59:11.590Z,9.63
2024-01-15T15:01:41.579Z,6.43
2024-01-15T15:04:12.068Z,6.18
2024-01-15T15:06:41.508Z,6.38
2024-01-15T15:09:11.504Z,6.85
2024-01-15T15:11:38.460Z,5.65
2024-01-15T15:14:08.403Z,6.72
2024-01-15T15:16:35.280Z,6.75
2024-01-15T15:19:02.297Z,5.93
2024-01-15T15:21:30.220Z,6.68
2024-01-15T15:23:57.282Z,6.05
2024-01-15T15:26:26.625Z,8.48
2024-01-15T15:28:53.641Z,7.45
2024-01-15T15:31:20.802Z,6.55
2024-01-15T15:33:47.939Z,4.00
2024-01-15T15:36:14.960Z,7.78
2024-01-15T15:38:41.983Z,6.88
2024-01-15T15:41:09.506Z,7.55
2024-01-15T15:43:36.791Z,6.45
2024-01-15T15:46:04.906Z,7.55
2024-01-15T15:48:35.771Z,6.75
2024-01-15T15:51:04.542Z,6.38
2024-01-15T15:53:31.900Z,6.70
2024-01-15T15:56:00.043Z,3.83
2024-01-15T15:58:26.952Z,6.82
2024-01-15T16:01:00.111Z,6.07
2024-01-15T16:03:34.789Z,6.55
2024-01-15T16:06:01.951Z,7.35
2024-01-15T16:08:28.970Z,5.28
2024-01-15T16:10:58.476Z,5.90
2024-01-15T16:13:25.388Z,4.35
2024-01-15T16:15:52.341Z,5.82
2024-01-15T16:23:21.905Z,5.00
2024-01-15T16:23:36.908Z,4.78
2024-01-15T16:24:23.539Z,6.70
2024-01-15T16:26:58.076Z,6.07
2024-01-15T16:29:25.781Z,4.60
2024-01-15T16:31:55.534Z,6.20
2024-01-15T16:34:22.432Z,5.55
2024-01-15T16:36:49.357Z,7.25
2024-01-15T16:39:16.188Z,7.35
2024-01-15T16:41:43.147Z,6.05
2024-01-15T16:44:10.246Z,3.85
2024-01-15T16:46:37.242Z,7.03
2024-01-15T16:49:09.573Z,5.25
2024-01-15T16:51:38.841Z,5.47
2024-01-15T16:54:06.176Z,5.85
2024-01-15T16:56:33.050Z,5.70
2024-01-15T16:59:00.301Z,7.50
2024-01-15T17:01:30.417Z,5.53
2024-01-15T17:03:57.356Z,5.45
2024-01-15T17:06:29.207Z,6.47
2024-01-15T17:08:59.242Z,6.25
2024-01-15T17:11:26.702Z,6.95
2024-01-15T17:13:53.725Z,6.07
2024-01-15T17:16:22.867Z,4.80
2024-01-15T17:18:50.181Z,4.80
2024-01-15T17:21:17.128Z,5.22
2024-01-15T17:23:44.046Z,5.93
2024-01-15T17:26:14.857Z,8.40
2024-01-15T17:28:41.817Z,6.07
2024-01-15T17:31:11.753Z,6.80
2024-01-15T17:33:38.620Z,5.60
2024-01-15T17:36:07.462Z,6.10
2024-01-15T17:38:37.547Z,5.85
2024-01-15T17:41:04.564Z,4.25
2024-01-15T17:43:31.429Z,4.90
2024-01-15T17:46:02.105Z,4.80
2024-01-15T17:48:32.891Z,6.30
2024-01-15T17:51:04.782Z,6.00
2024-01-15T17:53:34.977Z,5.90
2024-01-15T17:56:02.264Z,5.45
2024-01-15T17:58:33.256Z,6.20
2024-01-15T18:01:03.909Z,4.22
2024-01-15T18:03:30.865Z,4.35
2024-01-15T18:05:57.989Z,6.55
2024-01-15T18:08:30.651Z,6.03
2024-01-15T18:10:57.653Z,4.22
2024-01-15T18:13:24.464Z,5.75
2024-01-15T18:15:57.340Z,4.43
2024-01-15T18:18:27.866Z,6.07
2024-01-15T18:20:55.049Z,6.57
2024-01-15T18:23:21.968Z,4.80
2024-01-15T18:25:49.215Z,3.80
2024-01-15T18:28:16.326Z,5.07
2024-01-15T18:30:46.357Z,3.60
2024-01-15T18:33:16.513Z,4.13
2024-01-15T18:35:43.585Z,3.75
2024-01-15T18:38:10.760Z,5.60
2024-01-15T18:40:38.349Z,4.65
2024-01-15T18:43:06.703Z,3.65
2024-01-15T18:45:37.022Z,5.60
2024-01-15T18:48:04.220Z,4.18
2024-01-15T18:50:31.307Z,4.30
2024-01-15T18:52:58.315Z,3.65
2024-01-15T18:55:25.769Z,5.05
2024-01-15T18:57:52.760Z,2.95
2024-01-15T19:00:22.423Z,3.90
2024-01-15T19:02:49.456Z,4.28
2024-01-15T19:05:16.637Z,3.88
2024-01-15T19:07:47.220Z,3.47
2024-01-15T19:10:14.076Z,4.03
2024-01-15T19:12:40.981Z,3.65
2024-01-15T19:15:11.237Z,4.30
2024-01-15T19:17:39.665Z,4.15
2024-01-15T19:20:08.350Z,4.43
2024-01-15T19:22:35.311Z,4.03
2024-01-15T19:25:02.387Z,3.65
2024-01-15T19:27:30.557Z,3.60
2024-01-15T19:29:57.510Z,4.60
2024-01-15T19:32:24.313Z,3.53
2024-01-15T19:34:52.959Z,2.50
2024-01-15T19:37:19.748Z,4.30
2024-01-15T19:39:46.585Z,3.55
2024-01-15T19:42:14.393Z,2.65
2024-01-15T19:44:41.516Z,2.55
2024-01-15T19:47:08.776Z,4.28
2024-01-15T19:49:35.936Z,2.85
2024-01-15T19:52:02.809Z,3.05
2024-01-15T19:54:29.623Z,2.15
2024-01-15T19:56:56.446Z,3.72
2024-01-15T19:59:23.510Z,2.20
2024-01-15T20:01:50.323Z,2.83
2024-01-15T20:04:17.308Z,3.42
2024-01-15T20:06:44.246Z,2.22
2024-01-15T20:09:11.365Z,2.95
2024-01-15T20:11:38.610Z,3.10
2024-01-15T20:14:08.555Z,3.42
2024-01-15T20:16:35.935Z,3.78
2024-01-15T20:19:02.806Z,3.55
2024-01-15T20:21:30.004Z,3.30
2024-01-15T20:24:01.397Z,2.88
2024-01-15T20:26:31.205Z,4.00
2024-01-15T20:28:58.211Z,3.00
2024-01-15T20:31:25.297Z,2.63
2024-01-15T20:33:53.049Z,3.25
2024-01-15T20:36:19.905Z,3.10
2024-01-15T20:38:48.012Z,4.07
2024-01-15T20:41:17.551Z,3.65
2024-01-15T20:43:45.279Z,3.35
2024-01-15T20:46:12.858Z,4.03
2024-01-15T20:48:40.138Z,2.42
2024-01-15T20:51:07.237Z,3.83
2024-01-15T20:53:34.440Z,3.80
2024-01-15T20:56:01.942Z,4.00
2024-01-15T20:58:30.335Z,3.90
2024-01-15T21:00:57.791Z,3.88
2024-01-15T21:03:25.308Z,3.63
2024-01-15T21:05:52.541Z,3.72
2024-01-15T21:08:19.427Z,2.50
2024-01-15T21:10:46.754Z,3.33
2024-01-15T21:13:13.856Z,3.03
2024-01-15T21:15:43.707Z,2.95
2024-01-15T21:18:10.815Z,2.70
2024-01-15T21:20:37.965Z,2.92
2024-01-15T21:23:05.068Z,3.58
2024-01-15T21:25:32.143Z,3.50
2024-01-15T21:27:58.989Z,2.35
2024-01-15T21:30:26.556Z,2.30
2024-01-15T21:32:53.636Z,3.45
2024-01-15T21:35:20.621Z,2.83
2024-01-15T21:37:47.468Z,1.85
2024-01-15T21:40:14.386Z,2.60
2024-01-15T21:42:41.811Z,2.58
2024-01-15T21:45:09.889Z,2.95
2024-01-15T21:47:40.083Z,2.15
2024-01-15T21:50:10.793Z,3.03
2024-01-15T21:52:38.089Z,2.97
2024-01-15T21:55:07.188Z,2.17
2024-01-15T21:57:34.440Z,2.22
2024-01-15T22:00:04.179Z,2.92
2024-01-15T22:02:34.150Z,3.10
2024-01-15T22:05:01.024Z,3.05
2024-01-15T22:07:28.508Z,2.25
2024-01-15T22:09:55.405Z,2.70
2024-01-15T22:12:22.823Z,2.55
2024-01-15T22:14:49.819Z,2.13
2024-01-15T22:17:17.717Z,3.08
2024-01-15T22:19:44.584Z,3.38
2024-01-15T22:22:12.484Z,3.35
2024-01-15T22:24:39.678Z,2.58
2024-01-15T22:27:10.105Z,2.75
2024-01-15T22:29:37.072Z,3.40
2024-01-15T22:32:04.392Z,3.85
2024-01-15T22:34:31.367Z,3.50
2024-01-15T22:36:58.227Z,2.40
2024-01-15T22:39:25.420Z,3.38
2024-01-15T22:41:52.480Z,2.28
2024-01-15T22:44:19.848Z,3.55
2024-01-15T22:46:46.871Z,3.58
2024-01-15T22:49:14.425Z,2.50
2024-01-15T22:51:41.230Z,3.92
2024-01-15T22:54:08.015Z,3.05
2024-01-15T22:56:34.918Z,3.70
2024-01-15T22:59:01.739Z,3.10
2024-01-15T23:01:29.298Z,3.15
2024-01-15T23:03:56.538Z,3.05
2024-01-15T23:06:23.732Z,3.33
2024-01-15T23:08:50.691Z,1.80
2024-01-15T23:11:17.922Z,2.88
2024-01-15T23:13:45.160Z,2.75
2024-01-15T23:16:15.420Z,2.05
2024-01-15T23:18:43.370Z,2.60
2024-01-15T23:21:10.846Z,3.13
2024-01-15T23:23:37.884Z,2.38
2024-01-15T23:26:04.870Z,3.17
2024-01-15T23:28:33.024Z,3.00
2024-01-15T23:30:59.927Z,2.85
2024-01-15T23:33:26.903Z,3.40
2024-01-15T23:35:56.908Z,2.42
2024-01-15T23:38:26.647Z,3.38
2024-01-15T23:40:53.583Z,2.10
2024-01-15T23:43:20.390Z,2.70
2024-01-15T23:45:51.170Z,1.85
2024-01-15T23:48:22.730Z,2.50
2024-01-15T23:50:49.688Z,2.38
2024-01-15T23:53:16.646Z,2.30
2024-01-15T23:55:43.523Z,2.13
2024-01-15T23:58:10.326Z,2.38
